createdAt,value
2023-03-06T00:02:25.408Z,65.30
2023-03-06T00:07:27.732Z,60.30
2023-03-06T00:12:30.138Z,50.97
2023-03-06T00:17:32.537Z,56.37
2023-03-06T00:22:34.906Z,56.33
2023-03-06T00:27:37.216Z,52.33
2023-03-06T00:32:39.668Z,53.90
2023-03-06T00:37:42.498Z,68.73
2023-03-06T00:42:46.374Z,60.37
2023-03-06T00:47:48.728Z,73.60
2023-03-06T00:52:51.112Z,77.13
2023-03-06T00:57:53.509Z,74.97
2023-03-06T01:02:56.107Z,70.13
2023-03-06T01:07:58.465Z,66.23
2023-03-06T01:13:02.384Z,68.43
2023-03-06T01:18:04.860Z,68.13
2023-03-06T01:23:07.216Z,70.00
2023-03-06T01:28:09.603Z,65.40
2023-03-06T01:33:11.988Z,51.43
2023-03-06T01:38:14.469Z,47.40
2023-03-06T01:43:28.779Z,52.33
2023-03-06T01:48:31.286Z,54.23
2023-03-06T01:53:33.728Z,41.60
2023-03-06T01:58:36.393Z,37.40
2023-03-06T02:03:40.234Z,35.67
2023-03-06T02:08:42.627Z,36.97
2023-03-06T02:13:46.021Z,39.53
2023-03-06T02:18:49.901Z,38.37
2023-03-06T02:24:09.844Z,37.50
2023-03-06T02:29:12.364Z,47.57
2023-03-06T02:34:14.769Z,43.50
2023-03-06T02:39:21.677Z,41.00
2023-03-06T02:44:25.939Z,40.53
2023-03-06T02:49:28.400Z,42.07
2023-03-06T02:54:30.805Z,48.83
2023-03-06T02:59:33.249Z,41.53
2023-03-06T03:04:37.020Z,37.90
2023-03-06T03:09:39.735Z,54.20
2023-03-06T03:14:42.247Z,56.97
2023-03-06T03:19:44.676Z,55.83
2023-03-06T03:24:47.412Z,47.30
2023-03-06T03:29:49.956Z,37.20
2023-03-06T03:34:54.674Z,37.10
2023-03-06T03:39:58.829Z,36.83
2023-03-06T03:45:01.770Z,55.57
2023-03-06T03:50:04.968Z,51.40
2023-03-06T03:55:08.027Z,46.77
2023-03-06T04:00:16.314Z,43.30
2023-03-06T04:05:38.725Z,40.73
2023-03-06T04:10:43.330Z,37.93
2023-03-06T04:15:49.653Z,39.53
2023-03-06T04:20:52.243Z,41.30
2023-03-06T04:25:54.800Z,40.80
2023-03-06T04:30:58.188Z,41.47
2023-03-06T04:36:01.384Z,43.40
2023-03-06T04:41:06.758Z,35.33
2023-03-06T04:46:11.154Z,30.43
2023-03-06T04:51:14.602Z,35.17
2023-03-06T04:56:16.938Z,33.60
2023-03-06T05:01:19.281Z,33.37
2023-03-06T05:06:21.701Z,24.20
2023-03-06T05:11:24.030Z,29.07
2023-03-06T05:16:26.445Z,32.67
2023-03-06T05:21:28.732Z,36.03
2023-03-06T05:26:31.077Z,29.87
2023-03-06T05:31:33.423Z,34.80
2023-03-06T05:36:36.067Z,33.07
2023-03-06T05:41:38.397Z,30.43
2023-03-06T05:46:40.796Z,26.30
2023-03-06T05:51:43.082Z,24.60
2023-03-06T05:56:45.400Z,16.17
2023-03-06T06:01:47.696Z,10.17
2023-03-06T06:06:58.537Z,9.57
2023-03-06T06:12:02.576Z,10.03
2023-03-06T06:17:05.448Z,13.80
2023-03-06T06:22:08.327Z,8.53
2023-03-06T06:27:10.673Z,11.50
2023-03-06T06:32:13.108Z,10.67
2023-03-06T06:37:16.331Z,16.73
2023-03-06T06:42:32.592Z,16.73
2023-03-06T06:47:41.338Z,18.50
2023-03-06T06:52:44.112Z,41.37
2023-03-06T06:57:46.602Z,43.30
2023-03-06T07:02:49.359Z,24.53
2023-03-06T07:07:51.738Z,30.03
2023-03-06T07:12:54.592Z,36.60
2023-03-06T07:17:57.290Z,47.13
2023-03-06T07:22:59.716Z,28.30
2023-03-06T07:28:02.097Z,28.93
2023-03-06T07:33:04.733Z,29.33
2023-03-06T07:38:07.079Z,20.80
2023-03-06T07:43:19.055Z,19.17
2023-03-06T07:48:29.364Z,21.47
2023-03-06T07:53:32.649Z,12.87
2023-03-06T07:58:36.520Z,14.33
2023-03-06T08:03:39.061Z,35.77
2023-03-06T08:08:44.677Z,22.57
2023-03-06T08:13:48.779Z,16.73
2023-03-06T08:18:51.465Z,12.80
2023-03-06T08:23:53.872Z,22.57
2023-03-06T08:28:58.838Z,13.87
2023-03-06T08:34:05.056Z,14.57
2023-03-06T08:39:08.225Z,17.17
2023-03-06T08:44:11.115Z,14.63
2023-03-06T08:49:14.021Z,15.17
2023-03-06T08:54:16.382Z,15.93
2023-03-06T08:59:18.765Z,23.63
2023-03-06T09:04:21.185Z,21.13
2023-03-06T09:09:23.474Z,23.87
2023-03-06T09:14:25.856Z,31.13
2023-03-06T09:19:28.413Z,31.37
2023-03-06T09:24:30.854Z,35.13
2023-03-06T09:29:33.146Z,28.30
2023-03-06T09:34:36.053Z,35.60
2023-03-06T09:39:38.490Z,31.17
2023-03-06T09:44:42.629Z,30.50
2023-03-06T09:49:44.955Z,30.43
2023-03-06T09:54:52.489Z,23.83
2023-03-06T09:59:57.372Z,37.63
2023-03-06T10:05:04.114Z,27.40
2023-03-06T10:10:11.320Z,21.53
2023-03-06T10:15:21.190Z,26.47
2023-03-06T10:20:29.297Z,38.30
2023-03-06T10:25:52.786Z,24.33
2023-03-06T10:31:34.422Z,45.93
2023-03-06T10:36:36.739Z,28.40
2023-03-06T10:41:39.081Z,74.37
2023-03-06T10:46:44.555Z,46.37
2023-03-06T10:52:09.209Z,29.53
2023-03-06T10:57:20.527Z,53.63
2023-03-06T11:02:39.480Z,33.20
2023-03-06T11:08:00.318Z,28.90
2023-03-06T11:13:21.159Z,104.00
2023-03-06T11:18:38.711Z,20.60
2023-03-06T11:23:47.569Z,20.00
2023-03-06T11:28:54.955Z,20.60
2023-03-06T11:34:21.408Z,24.63
2023-03-06T11:39:29.613Z,22.17
2023-03-06T11:45:03.347Z,19.70
2023-03-06T11:50:21.661Z,26.67
2023-03-06T11:55:35.976Z,35.80
2023-03-06T12:01:00.491Z,23.20
2023-03-06T12:06:18.306Z,28.90
2023-03-06T12:11:32.816Z,27.90
2023-03-06T12:17:08.960Z,21.03
2023-03-06T12:22:31.397Z,26.53
2023-03-06T12:27:40.455Z,19.80
2023-03-06T12:33:10.131Z,24.43
2023-03-06T12:38:30.818Z,27.23
2023-03-06T12:44:29.992Z,27.60
2023-03-06T12:49:38.675Z,24.57
2023-03-06T12:54:41.785Z,24.90
2023-03-06T12:59:48.011Z,23.60
2023-03-06T13:05:07.417Z,14.63
2023-03-06T13:10:20.362Z,14.77
2023-03-06T13:16:03.473Z,10.30
2023-03-06T13:21:05.830Z,11.27
2023-03-06T13:26:26.068Z,22.43
2023-03-06T13:31:36.342Z,14.13
2023-03-06T13:36:39.885Z,17.70
2023-03-06T13:41:57.713Z,54.10
2023-03-06T13:47:05.097Z,19.57
2023-03-06T13:52:18.188Z,38.33
2023-03-06T13:57:20.530Z,11.97
2023-03-06T14:02:37.657Z,33.20
2023-03-06T14:07:43.159Z,32.87
2023-03-06T14:12:51.558Z,25.73
2023-03-06T14:17:59.423Z,25.17
2023-03-06T14:23:34.387Z,42.93
2023-03-06T14:28:37.149Z,34.83
2023-03-06T14:33:39.497Z,32.33
2023-03-06T14:39:00.889Z,10.33
2023-03-06T14:44:18.156Z,43.27
2023-03-06T14:49:22.348Z,31.17
2023-03-06T14:54:31.346Z,47.17
2023-03-06T14:59:45.293Z,43.90
2023-03-06T15:04:53.008Z,31.17
2023-03-06T15:09:55.942Z,27.03
2023-03-06T15:15:00.185Z,19.13
2023-03-06T15:20:02.565Z,33.47
2023-03-06T15:25:30.887Z,25.60
2023-03-06T15:30:36.256Z,29.17
2023-03-06T15:35:38.923Z,27.47
2023-03-06T15:40:53.549Z,18.43
2023-03-06T15:45:59.718Z,26.10
2023-03-06T15:51:02.341Z,40.60
2023-03-06T15:56:04.970Z,46.70
2023-03-06T16:01:08.263Z,33.67
2023-03-06T16:06:24.379Z,33.50
2023-03-06T16:11:42.023Z,21.50
2023-03-06T16:16:46.280Z,22.03
2023-03-06T16:21:48.844Z,19.40
2023-03-06T16:26:52.753Z,29.73
2023-03-06T16:31:56.660Z,38.50
2023-03-06T16:36:59.014Z,92.80
2023-03-06T16:42:01.307Z,92.10
2023-03-06T16:47:06.238Z,193.03
2023-03-06T16:52:10.868Z,145.80
2023-03-06T16:57:14.771Z,89.90
2023-03-06T17:02:17.183Z,77.93
2023-03-06T17:07:19.600Z,48.63
2023-03-06T17:12:21.908Z,99.73
2023-03-06T17:17:24.301Z,77.40
2023-03-06T17:22:27.427Z,115.47
2023-03-06T17:27:30.063Z,85.97
2023-03-06T17:32:32.868Z,70.57
2023-03-06T17:37:35.571Z,66.80
2023-03-06T17:42:37.963Z,99.90
2023-03-06T17:47:40.318Z,108.50
2023-03-06T17:52:42.661Z,103.40
2023-03-06T17:57:44.986Z,101.27
2023-03-06T18:02:47.313Z,80.17
2023-03-06T18:07:49.640Z,78.10
2023-03-06T18:12:52.044Z,72.93
2023-03-06T18:17:56.484Z,59.97
2023-03-06T18:23:03.377Z,69.53
2023-03-06T18:28:06.142Z,71.10
2023-03-06T18:33:09.449Z,77.43
2023-03-06T18:38:11.795Z,73.87
2023-03-06T18:43:14.177Z,82.83
2023-03-06T18:48:16.530Z,73.17
2023-03-06T18:53:20.044Z,91.23
2023-03-06T18:58:22.554Z,112.00
2023-03-06T19:03:25.166Z,116.27
2023-03-06T19:08:27.533Z,120.23
2023-03-06T19:13:30.405Z,162.10
2023-03-06T19:18:32.968Z,120.20
2023-03-06T19:23:35.418Z,88.63
2023-03-06T19:28:39.830Z,84.17
2023-03-06T19:33:43.108Z,87.27
2023-03-06T19:38:50.276Z,98.87
2023-03-06T19:43:55.483Z,72.07
2023-03-06T19:48:59.968Z,71.10
2023-03-06T19:54:02.284Z,72.53
2023-03-06T19:59:04.627Z,89.73
2023-03-06T20:04:07.315Z,108.10
2023-03-06T20:09:11.240Z,218.70
2023-03-06T20:14:13.634Z,158.00
2023-03-06T20:19:16.389Z,241.13
2023-03-06T20:24:19.188Z,195.73
2023-03-06T20:29:21.472Z,180.33
2023-03-06T20:34:25.004Z,238.33
2023-03-06T20:39:27.608Z,168.13
2023-03-06T20:44:30.157Z,123.93
2023-03-06T20:49:32.534Z,127.00
2023-03-06T20:54:35.274Z,127.27
2023-03-06T20:59:37.660Z,137.73
2023-03-06T21:04:41.114Z,99.13
2023-03-06T21:09:44.561Z,97.20
2023-03-06T21:14:46.932Z,97.47
2023-03-06T21:19:49.294Z,234.57
2023-03-06T21:24:51.743Z,156.50
2023-03-06T21:29:54.086Z,125.50
2023-03-06T21:34:56.410Z,120.27
2023-03-06T21:40:00.224Z,102.57
2023-03-06T21:45:04.182Z,77.53
2023-03-06T21:50:08.479Z,69.87
2023-03-06T21:55:10.789Z,86.70
2023-03-06T22:00:13.315Z,121.60
2023-03-06T22:05:16.328Z,197.60
2023-03-06T22:10:18.765Z,130.37
2023-03-06T22:15:21.926Z,81.10
2023-03-06T22:20:24.250Z,76.47
2023-03-06T22:25:26.568Z,76.23
2023-03-06T22:30:28.949Z,92.93
2023-03-06T22:35:31.540Z,82.20
2023-03-06T22:40:34.207Z,88.93
2023-03-06T22:45:36.704Z,71.23
2023-03-06T22:50:39.098Z,59.20
2023-03-06T22:55:41.418Z,122.87
2023-03-06T23:00:43.737Z,106.17
2023-03-06T23:05:46.038Z,68.93
2023-03-06T23:10:48.461Z,66.30
2023-03-06T23:16:09.955Z,66.13
2023-03-06T23:21:30.946Z,227.60
2023-03-06T23:26:51.796Z,111.37
2023-03-06T23:31:54.168Z,71.13
2023-03-06T23:36:56.501Z,88.00
2023-03-06T23:41:59.390Z,75.87
2023-03-06T23:47:01.724Z,84.17
2023-03-06T23:52:04.433Z,89.27
2023-03-06T23:57:06.892Z,76.93
